Ride Results

Terrific Tenterfield Sunday (15-03-2009)
Ride distance: 80.0 km

Outcomes - Terrific Tenterfield Sunday (15-03-2009)
Division No. of Entries Retired / DNE Completed Withdrawn Ineligible V/O Percentage Completed
HW 8 - 5 1 - 2 62.50%
MW 26 - 21 - - 5 80.77%
LW 12 - 6 1 - 5 50.00%
JN 9 - 6 1 - 2 66.67%
Totals 55 - 38 3 - 14 69.09%
Results - Terrific Tenterfield Sunday (15-03-2009)
No. Rider Horse Place Time Leg Speeds Total
Km/Hr
H/R bpm
Heavyweight
16 Matthew Gadsby Dardanga Fingal 1 6:43:00 12.4, 11.3 11.91 35, 45, 50 (Avg:47)
12 Paul Lengronne Cherox Kariim 1 6:43:00 12.4, 11.3 11.91 36, 48, 55 (Avg:51)
017 Tad Cossins Jaytee Silhouette 3 (BC) 7:02:05 12.9, 10.1 11.37 35, 39, 44 (Avg:41)
40 Craig Renner Edenfels Naadam 4 7:58:05 11.1, 9.1 10.04 41, 46, 57 (Avg:51)
020 Allan Caslick A'Landell Stowaway 5 8:49:00 9.8, 8.3 9.07 36, 51, 52 (Avg:51)
45 Peter McDonald Wollumbin Farah Metabolics moderate L2 0:00:00 13.6, 6.9 - 35, 54, 57 (Avg:55)
15 Kathryn Priol Sundust Frisco Heart Rate L2 0:00:00 10.5, 8.7 - 38, 49, 69 (Avg:59)
23 Allyson Taylor Everon Park Shebell Widthdrawn L1 0:00:00 - - 35, 52 (Avg:52)
Middleweight
37 Simone Krahnen Kalkadoon Zorro 1 (BC) 5:36:05 14.0, 14.5 14.28 31, 45, 52 (Avg:48)
58 Gerard Bou Splendacrest Sayirah 2 6:29:05 12.9, 11.8 12.34 36, 44, 49 (Avg:46)
033 Tony Standfield Stanpark Rupert 3 6:58:00 11.8, 11.1 11.48 39, 40, 60 (Avg:50)
47 Ron Haigh Dakila Pascalle 4 6:59:00 11.4, 11.4 11.46 40, 45, 51 (Avg:48)
41 Nicole Urquhart Bendy Creek Barbarella 5 7:02:06 11.9, 10.8 11.37 37, 43, 49 (Avg:46)
031 Gayle Holmes Aloha Spartacus 6 7:04:00 11.3, 11.3 11.32 40, 45, 46 (Avg:45)
24 Akhmed Pshunov La Crysada 6 7:04:00 11.3, 11.3 11.32 38, 50, 49 (Avg:49)
44 Ken Moir Far Q Desmond 8 7:07:00 11.9, 10.6 11.24 43, 49, 50 (Avg:49)
59 Renae Kuhn Bourhani Albaraq 9 7:17:05 11.0, 10.9 10.98 40, 45, 53 (Avg:49)
55 Rod Strahan Shardell Prince Valiant 10 7:17:06 11.0, 10.9 10.98 45, 42, 46 (Avg:44)
51 Bridget Nottle Bremervale Justice 11 7:22:00 10.6, 11.1 10.86 33, 41, 53 (Avg:47)
014 Rachael Keys Elfar Viper Fire 12 7:28:00 11.4, 10.0 10.71 33, 40, 53 (Avg:46)
019 Danielle Cullen Shamazan Kalisha 13 7:50:06 9.1, 11.5 10.21 43, 42, 52 (Avg:47)
46 Stephen Gray Shartier el shareef 14 7:52:05 11.3, 9.2 10.17 43, 46, 50 (Avg:48)
57 Eiji Yoshikawa Splendacrest Ulysses 15 7:55:07 10.5, 9.7 10.10 33, 44, 54 (Avg:49)
50 Narelle Childs Follyfoot 16 7:56:06 11.9, 8.7 10.08 39, 48, 52 (Avg:50)
4 Debra McQueen Armani Thunder 17 7:58:00 10.5, 9.5 10.04 34, 43, 46 (Avg:44)
08 Tracy Haack Woodsdale Nero 18 8:16:00 9.8, 9.4 9.68 35, 47, 58 (Avg:52)
010 Kim Van Der Wegen Macquarie Park Roshan 18 8:16:00 9.8, 9.4 9.68 40, 40, 58 (Avg:49)
011 Rosemary Skipper Harmony Park Spirit 20 8:20:00 10.5, 8.7 9.60 34, 42, 43 (Avg:42)
09 Ruth Van der Wegen V-Enduro Khalifa 21 8:49:00 9.8, 8.3 9.07 41, 54, 59 (Avg:56)
61 Robyn McIntosh-Shoesmith Bangoman Metabolics moderate L2 0:00:00 12.3, 11.9 - 31, 46, 59 (Avg:52)
1 Jamie Mollema Littlebanks Tic Tac Toe Metabolics moderate L2 0:00:00 14.9, 15.1 - 34, 53, 0 (Avg:26)
02 Victor Slade The Falconer Heart Rate L2 0:00:00 11.8, 8.9 - 45, 46, 62 (Avg:54)
22 Leeanne Bartlett Bonnie Downs Diamond Heart Rate L1 0:00:00 11.3 - 36, 58 (Avg:58)
36 Suzanne Barton Red Storm Gall or injury L1 0:00:00 9.3 - 37, 52 (Avg:52)
Lightweight
42 Judy Battams Nangamba Alisaar 1 (BC) 5:08:05 14.9, 16.2 15.58 45, 51, 58 (Avg:54)
07 Clare Fleming Asraf Amir 2 6:29:06 12.3, 12.3 12.34 36, 46, 51 (Avg:48)
018 Adrian Brickley Shinto 3 7:35:00 10.6, 10.4 10.55 32, 46, 44 (Avg:45)
06 Angela Hawks Siberia 3 7:35:00 10.6, 10.4 10.55 38, 44, 54 (Avg:49)
53 Clio Rauch Shaah 5 7:55:05 10.5, 9.7 10.10 35, 47, 48 (Avg:47)
49 Xanthe Webb Azzrah 6 7:58:00 10.5, 9.5 10.04 36, 43, 51 (Avg:47)
021 Christine Christie Duke Heart Rate L2 0:00:00 11.8, 9.7 - 41, 54, 70 (Avg:62)
43 Susan Kelman Jayhal Moonlight Lame L2 0:00:00 12.8, 10.1 - 41, 40, 50 (Avg:45)
56 Yoshiko Miyamoto Mt Eerwah Silver Mariner Heart Rate L2 0:00:00 10.5, 9.7 - 33, 43, 72 (Avg:57)
48 Julia Morgillo Maydale Park Bethsheba Metabolics L2 0:00:00 9.8, 8.1 - 33, 49, 0 (Avg:24)
03 Belle Bollard Badger Widthdrawn L1 0:00:00 - - 31, 51 (Avg:51)
54 Marcia Burger Splendacrest Zhateau Lame L1 0:00:00 10.5 - 43, 50 (Avg:50)
Junior
5 Hannah Houlden Googabilla Lodge Starlight 1 (BC) 5:18:00 14.3, 15.8 15.09 33, 48, 40 (Avg:44)
39 Erin Krahnen Rodborough Bey Abdul 1 5:18:00 14.0, 16.3 15.09 36, 40, 56 (Avg:48)
038 Connor Krahnen Kalkadoon Shalom 3 5:36:06 14.0, 14.5 14.28 36, 46, 59 (Avg:52)
035 Billie Standfield Stanpark Meg 4 6:58:00 11.8, 11.1 11.48 33, 42, 46 (Avg:44)
030 Lisa Burgess Rowallan Cyprus 5 7:05:00 11.3, 11.2 11.29 39, 44, 47 (Avg:45)
13 Dylan Keys Elfar Sword O'Fire 6 7:28:00 11.4, 10.0 10.71 32, 39, 40 (Avg:39)
032 Wade Burgess Cameo Stormboy Heart Rate L2 0:00:00 11.3, 11.2 - 39, 43, 74 (Avg:58)
034 Aime Newton Stanpark Axeman Heart Rate L2 0:00:00 11.8, 11.1 - 43, 50, 72 (Avg:61)
52 Tarnia Kittel Zayelle's Showgirl Widthdrawn L1 0:00:00 - - 33, 54 (Avg:54)